Terminal Aerodrome Forecast
Issued by NWS

Home | Current Version | Previous Version | Text Only | Print | Product List | Glossary On
Versions: 1 2 3 4 5 6 7 8 9 10 11 12 13 14 15 16 17 18
000
FTUS43 KSGF 030500
TAFBBG
TAF
KBBG 030520Z 0306/0406 VRB04KT P6SM SCT040 BKN080
     FM031000 14005KT 4SM BR SCT060 BKN100
     FM031500 17006KT P6SM SCT250=

USA.gov is the U.S. government's official web portal to all federal, state and local government web resources and services.